sensor_id;sensor_type;location;lat;lon;timestamp;temperature;humidity
69382;DHT22;56560;50.692;12.844;2023-02-01T00:01:28;3.30;82.50
69382;DHT22;56560;50.692;12.844;2023-02-01T00:03:53;3.30;82.70
69382;DHT22;56560;50.692;12.844;2023-02-01T00:06:19;3.30;82.40
69382;DHT22;56560;50.692;12.844;2023-02-01T00:08:44;3.30;82.30
69382;DHT22;56560;50.692;12.844;2023-02-01T00:11:11;3.30;82.10
69382;DHT22;56560;50.692;12.844;2023-02-01T00:13:40;3.30;82.20
69382;DHT22;56560;50.692;12.844;2023-02-01T00:16:18;3.30;82.10
69382;DHT22;56560;50.692;12.844;2023-02-01T00:18:45;3.20;82.00
69382;DHT22;56560;50.692;12.844;2023-02-01T00:21:15;3.30;82.00
69382;DHT22;56560;50.692;12.844;2023-02-01T00:23:41;3.30;81.80
69382;DHT22;56560;50.692;12.844;2023-02-01T00:26:14;3.30;81.20
69382;DHT22;56560;50.692;12.844;2023-02-01T00:28:40;3.30;80.80
69382;DHT22;56560;50.692;12.844;2023-02-01T00:31:06;3.30;80.40
69382;DHT22;56560;50.692;12.844;2023-02-01T00:33:32;3.30;80.20
69382;DHT22;56560;50.692;12.844;2023-02-01T00:35:58;3.40;80.10
69382;DHT22;56560;50.692;12.844;2023-02-01T00:38:28;3.40;79.80
69382;DHT22;56560;50.692;12.844;2023-02-01T00:41:01;3.40;79.70
69382;DHT22;56560;50.692;12.844;2023-02-01T00:43:26;3.40;79.50
69382;DHT22;56560;50.692;12.844;2023-02-01T00:45:52;3.40;79.10
69382;DHT22;56560;50.692;12.844;2023-02-01T00:48:18;3.30;78.80
69382;DHT22;56560;50.692;12.844;2023-02-01T00:50:43;3.30;79.10
69382;DHT22;56560;50.692;12.844;2023-02-01T00:53:10;3.30;78.80
69382;DHT22;56560;50.692;12.844;2023-02-01T00:55:36;3.30;78.80
69382;DHT22;56560;50.692;12.844;2023-02-01T00:58:02;3.30;78.50
69382;DHT22;56560;50.692;12.844;2023-02-01T01:00:28;3.10;78.90
69382;DHT22;56560;50.692;12.844;2023-02-01T01:02:53;3.00;79.20
69382;DHT22;56560;50.692;12.844;2023-02-01T01:05:20;3.00;79.50
69382;DHT22;56560;50.692;12.844;2023-02-01T01:07:46;3.10;79.50
69382;DHT22;56560;50.692;12.844;2023-02-01T01:10:11;3.10;79.10
69382;DHT22;56560;50.692;12.844;2023-02-01T01:12:37;3.10;78.50
69382;DHT22;56560;50.692;12.844;2023-02-01T01:15:03;3.20;78.40
69382;DHT22;56560;50.692;12.844;2023-02-01T01:17:31;3.30;78.30
69382;DHT22;56560;50.692;12.844;2023-02-01T01:19:56;3.30;77.50
69382;DHT22;56560;50.692;12.844;2023-02-01T01:22:22;3.30;77.20
69382;DHT22;56560;50.692;12.844;2023-02-01T01:24:47;3.30;76.70
69382;DHT22;56560;50.692;12.844;2023-02-01T01:27:13;3.30;77.10
69382;DHT22;56560;50.692;12.844;2023-02-01T01:29:39;3.40;77.10
69382;DHT22;56560;50.692;12.844;2023-02-01T01:32:04;3.40;76.60
69382;DHT22;56560;50.692;12.844;2023-02-01T01:34:30;3.50;76.00
69382;DHT22;56560;50.692;12.844;2023-02-01T01:36:56;3.50;76.20
69382;DHT22;56560;50.692;12.844;2023-02-01T01:39:21;3.50;75.30
69382;DHT22;56560;50.692;12.844;2023-02-01T01:41:47;3.50;75.10
69382;DHT22;56560;50.692;12.844;2023-02-01T01:47:16;3.50;74.50
69382;DHT22;56560;50.692;12.844;2023-02-01T01:49:42;3.50;74.70
69382;DHT22;56560;50.692;12.844;2023-02-01T01:52:08;3.50;74.90
69382;DHT22;56560;50.692;12.844;2023-02-01T01:54:45;3.50;74.50
69382;DHT22;56560;50.692;12.844;2023-02-01T01:57:25;3.50;74.30
69382;DHT22;56560;50.692;12.844;2023-02-01T02:00:03;3.50;74.20
69382;DHT22;56560;50.692;12.844;2023-02-01T02:02:29;3.40;74.90
69382;DHT22;56560;50.692;12.844;2023-02-01T02:04:58;3.50;75.30
69382;DHT22;56560;50.692;12.844;2023-02-01T02:07:32;3.40;75.80
69382;DHT22;56560;50.692;12.844;2023-02-01T02:09:57;3.50;75.80
69382;DHT22;56560;50.692;12.844;2023-02-01T02:12:23;3.50;75.80
69382;DHT22;56560;50.692;12.844;2023-02-01T02:14:49;3.40;76.30
69382;DHT22;56560;50.692;12.844;2023-02-01T02:25:38;3.30;76.60
69382;DHT22;56560;50.692;12.844;2023-02-01T02:33:48;3.30;76.10
69382;DHT22;56560;50.692;12.844;2023-02-01T02:36:23;3.30;75.90
69382;DHT22;56560;50.692;12.844;2023-02-01T02:39:01;3.30;75.30
69382;DHT22;56560;50.692;12.844;2023-02-01T02:44:56;3.30;74.90
69382;DHT22;56560;50.692;12.844;2023-02-01T02:47:46;3.20;74.90
69382;DHT22;56560;50.692;12.844;2023-02-01T02:53:19;3.10;75.20
69382;DHT22;56560;50.692;12.844;2023-02-01T02:56:06;3.20;75.50
69382;DHT22;56560;50.692;12.844;2023-02-01T02:58:52;3.20;75.10
69382;DHT22;56560;50.692;12.844;2023-02-01T03:01:38;3.20;75.30
69382;DHT22;56560;50.692;12.844;2023-02-01T03:04:23;3.20;75.20
69382;DHT22;56560;50.692;12.844;2023-02-01T03:06:52;3.20;74.90
69382;DHT22;56560;50.692;12.844;2023-02-01T03:11:47;3.30;74.70
69382;DHT22;56560;50.692;12.844;2023-02-01T03:14:35;3.30;74.90
69382;DHT22;56560;50.692;12.844;2023-02-01T03:17:08;3.40;74.50
69382;DHT22;56560;50.692;12.844;2023-02-01T03:19:43;3.30;74.50
69382;DHT22;56560;50.692;12.844;2023-02-01T03:22:17;3.30;74.20
69382;DHT22;56560;50.692;12.844;2023-02-01T03:24:50;3.30;74.30
69382;DHT22;56560;50.692;12.844;2023-02-01T03:27:18;3.30;74.60
69382;DHT22;56560;50.692;12.844;2023-02-01T03:32:20;3.30;74.40
69382;DHT22;56560;50.692;12.844;2023-02-01T03:34:47;3.30;74.90
69382;DHT22;56560;50.692;12.844;2023-02-01T03:37:20;3.20;75.10
69382;DHT22;56560;50.692;12.844;2023-02-01T03:39:53;3.20;75.30
69382;DHT22;56560;50.692;12.844;2023-02-01T03:42:46;3.20;75.50
69382;DHT22;56560;50.692;12.844;2023-02-01T03:45:21;3.20;75.70
69382;DHT22;56560;50.692;12.844;2023-02-01T03:47:50;3.10;75.40
69382;DHT22;56560;50.692;12.844;2023-02-01T03:50:22;3.10;75.50
69382;DHT22;56560;50.692;12.844;2023-02-01T03:52:58;3.10;75.60
69382;DHT22;56560;50.692;12.844;2023-02-01T03:55:25;3.10;75.40
69382;DHT22;56560;50.692;12.844;2023-02-01T03:58:19;3.10;75.30
69382;DHT22;56560;50.692;12.844;2023-02-01T04:00:59;3.20;75.10
69382;DHT22;56560;50.692;12.844;2023-02-01T04:03:26;3.20;74.90
69382;DHT22;56560;50.692;12.844;2023-02-01T04:05:52;3.30;74.70
69382;DHT22;56560;50.692;12.844;2023-02-01T04:08:20;3.30;74.40
69382;DHT22;56560;50.692;12.844;2023-02-01T04:10:45;3.20;74.40
69382;DHT22;56560;50.692;12.844;2023-02-01T04:13:11;3.20;74.80
69382;DHT22;56560;50.692;12.844;2023-02-01T04:15:37;3.20;74.60
69382;DHT22;56560;50.692;12.844;2023-02-01T04:18:03;3.30;74.40
69382;DHT22;56560;50.692;12.844;2023-02-01T04:20:28;3.30;74.60
69382;DHT22;56560;50.692;12.844;2023-02-01T04:22:54;3.40;74.10
69382;DHT22;56560;50.692;12.844;2023-02-01T04:25:20;3.40;74.00
69382;DHT22;56560;50.692;12.844;2023-02-01T04:27:46;3.30;73.70
69382;DHT22;56560;50.692;12.844;2023-02-01T04:30:12;3.30;73.70
69382;DHT22;56560;50.692;12.844;2023-02-01T04:32:38;3.30;73.80
69382;DHT22;56560;50.692;12.844;2023-02-01T04:35:05;3.30;73.60
69382;DHT22;56560;50.692;12.844;2023-02-01T04:37:30;3.30;74.10
69382;DHT22;56560;50.692;12.844;2023-02-01T04:39:56;3.30;74.00
69382;DHT22;56560;50.692;12.844;2023-02-01T04:42:22;3.30;74.00
69382;DHT22;56560;50.692;12.844;2023-02-01T04:44:47;3.30;74.10
69382;DHT22;56560;50.692;12.844;2023-02-01T04:47:13;3.30;74.80
69382;DHT22;56560;50.692;12.844;2023-02-01T04:49:40;3.30;74.50
69382;DHT22;56560;50.692;12.844;2023-02-01T04:52:05;3.40;74.20
69382;DHT22;56560;50.692;12.844;2023-02-01T04:54:31;3.30;74.40
69382;DHT22;56560;50.692;12.844;2023-02-01T04:56:57;3.30;74.40
69382;DHT22;56560;50.692;12.844;2023-02-01T04:59:22;3.30;74.60
69382;DHT22;56560;50.692;12.844;2023-02-01T05:01:48;3.30;75.20
69382;DHT22;56560;50.692;12.844;2023-02-01T05:04:13;3.30;75.40
69382;DHT22;56560;50.692;12.844;2023-02-01T05:06:39;3.30;75.60
69382;DHT22;56560;50.692;12.844;2023-02-01T05:09:05;3.20;76.00
69382;DHT22;56560;50.692;12.844;2023-02-01T05:11:30;3.20;76.70
69382;DHT22;56560;50.692;12.844;2023-02-01T05:14:25;3.20;76.90
69382;DHT22;56560;50.692;12.844;2023-02-01T05:16:51;3.20;77.50
69382;DHT22;56560;50.692;12.844;2023-02-01T05:19:16;3.10;78.00
69382;DHT22;56560;50.692;12.844;2023-02-01T05:21:42;3.10;78.10
69382;DHT22;56560;50.692;12.844;2023-02-01T05:24:08;3.10;78.60
69382;DHT22;56560;50.692;12.844;2023-02-01T05:26:45;3.00;78.70
69382;DHT22;56560;50.692;12.844;2023-02-01T05:29:12;3.00;79.00
69382;DHT22;56560;50.692;12.844;2023-02-01T05:31:38;2.90;79.20
69382;DHT22;56560;50.692;12.844;2023-02-01T05:34:05;2.90;79.50
69382;DHT22;56560;50.692;12.844;2023-02-01T05:36:31;2.90;79.80
69382;DHT22;56560;50.692;12.844;2023-02-01T05:38:57;2.90;80.00
69382;DHT22;56560;50.692;12.844;2023-02-01T05:41:23;2.80;80.50
69382;DHT22;56560;50.692;12.844;2023-02-01T05:43:48;2.90;80.50
69382;DHT22;56560;50.692;12.844;2023-02-01T05:46:14;2.90;80.50
69382;DHT22;56560;50.692;12.844;2023-02-01T05:48:40;2.90;80.60
69382;DHT22;56560;50.692;12.844;2023-02-01T05:51:06;2.90;80.40
69382;DHT22;56560;50.692;12.844;2023-02-01T05:53:32;2.90;80.20
69382;DHT22;56560;50.692;12.844;2023-02-01T05:55:57;2.90;79.90
69382;DHT22;56560;50.692;12.844;2023-02-01T05:58:23;3.00;79.80
69382;DHT22;56560;50.692;12.844;2023-02-01T06:00:49;3.00;79.20
69382;DHT22;56560;50.692;12.844;2023-02-01T06:03:14;3.10;78.70
69382;DHT22;56560;50.692;12.844;2023-02-01T06:05:40;3.10;78.50
69382;DHT22;56560;50.692;12.844;2023-02-01T06:08:06;3.10;78.00
69382;DHT22;56560;50.692;12.844;2023-02-01T06:10:33;3.10;77.80
69382;DHT22;56560;50.692;12.844;2023-02-01T06:12:58;3.20;78.10
69382;DHT22;56560;50.692;12.844;2023-02-01T06:15:24;3.10;78.20
69382;DHT22;56560;50.692;12.844;2023-02-01T06:17:50;3.10;78.30
69382;DHT22;56560;50.692;12.844;2023-02-01T06:20:16;3.00;78.90
69382;DHT22;56560;50.692;12.844;2023-02-01T06:22:41;3.00;79.10
69382;DHT22;56560;50.692;12.844;2023-02-01T06:25:09;3.00;79.00
69382;DHT22;56560;50.692;12.844;2023-02-01T06:27:35;3.00;79.30
69382;DHT22;56560;50.692;12.844;2023-02-01T06:30:02;3.00;79.10
69382;DHT22;56560;50.692;12.844;2023-02-01T06:32:28;3.00;78.70
69382;DHT22;56560;50.692;12.844;2023-02-01T06:34:54;3.00;78.10
69382;DHT22;56560;50.692;12.844;2023-02-01T06:37:21;3.10;78.00
69382;DHT22;56560;50.692;12.844;2023-02-01T06:39:48;3.10;77.90
69382;DHT22;56560;50.692;12.844;2023-02-01T06:42:14;3.10;77.70
69382;DHT22;56560;50.692;12.844;2023-02-01T06:44:39;3.10;77.50
69382;DHT22;56560;50.692;12.844;2023-02-01T06:47:05;3.20;77.30
69382;DHT22;56560;50.692;12.844;2023-02-01T06:49:31;3.20;77.10
69382;DHT22;56560;50.692;12.844;2023-02-01T06:51:56;3.20;77.60
69382;DHT22;56560;50.692;12.844;2023-02-01T06:54:22;3.20;77.50
69382;DHT22;56560;50.692;12.844;2023-02-01T06:56:48;3.20;77.60
69382;DHT22;56560;50.692;12.844;2023-02-01T06:59:13;3.20;77.60
69382;DHT22;56560;50.692;12.844;2023-02-01T07:01:39;3.20;77.60
69382;DHT22;56560;50.692;12.844;2023-02-01T07:04:05;3.10;77.90
69382;DHT22;56560;50.692;12.844;2023-02-01T07:06:31;3.20;78.00
69382;DHT22;56560;50.692;12.844;2023-02-01T07:08:57;3.20;77.90
69382;DHT22;56560;50.692;12.844;2023-02-01T07:11:23;3.20;77.60
69382;DHT22;56560;50.692;12.844;2023-02-01T07:13:49;3.20;77.60
69382;DHT22;56560;50.692;12.844;2023-02-01T07:16:17;3.20;77.70
69382;DHT22;56560;50.692;12.844;2023-02-01T07:18:44;3.20;77.60
69382;DHT22;56560;50.692;12.844;2023-02-01T07:21:10;3.20;77.80
69382;DHT22;56560;50.692;12.844;2023-02-01T07:23:35;3.20;77.80
69382;DHT22;56560;50.692;12.844;2023-02-01T07:26:04;3.20;77.60
69382;DHT22;56560;50.692;12.844;2023-02-01T07:28:32;3.20;77.70
69382;DHT22;56560;50.692;12.844;2023-02-01T07:31:06;3.20;77.70
69382;DHT22;56560;50.692;12.844;2023-02-01T07:33:32;3.30;77.60
69382;DHT22;56560;50.692;12.844;2023-02-01T07:35:59;3.30;77.60
69382;DHT22;56560;50.692;12.844;2023-02-01T07:38:25;3.30;77.50
69382;DHT22;56560;50.692;12.844;2023-02-01T07:40:57;3.30;77.10
69382;DHT22;56560;50.692;12.844;2023-02-01T07:43:23;3.40;76.90
69382;DHT22;56560;50.692;12.844;2023-02-01T07:45:53;3.40;76.20
69382;DHT22;56560;50.692;12.844;2023-02-01T07:48:19;3.40;76.10
69382;DHT22;56560;50.692;12.844;2023-02-01T07:50:45;3.40;75.40
69382;DHT22;56560;50.692;12.844;2023-02-01T07:53:10;3.40;75.40
69382;DHT22;56560;50.692;12.844;2023-02-01T07:55:39;3.50;75.30
69382;DHT22;56560;50.692;12.844;2023-02-01T07:58:05;3.50;75.20
69382;DHT22;56560;50.692;12.844;2023-02-01T08:00:31;3.50;74.70
69382;DHT22;56560;50.692;12.844;2023-02-01T08:03:15;3.50;74.30
69382;DHT22;56560;50.692;12.844;2023-02-01T08:05:41;3.60;74.00
69382;DHT22;56560;50.692;12.844;2023-02-01T08:08:06;3.60;74.00
69382;DHT22;56560;50.692;12.844;2023-02-01T08:10:32;3.70;73.30
69382;DHT22;56560;50.692;12.844;2023-02-01T08:12:59;3.60;73.70
69382;DHT22;56560;50.692;12.844;2023-02-01T08:15:26;3.60;73.10
69382;DHT22;56560;50.692;12.844;2023-02-01T08:17:52;3.60;72.70
69382;DHT22;56560;50.692;12.844;2023-02-01T08:20:19;3.60;73.30
69382;DHT22;56560;50.692;12.844;2023-02-01T08:22:47;3.70;72.70
69382;DHT22;56560;50.692;12.844;2023-02-01T08:25:13;3.70;72.00
69382;DHT22;56560;50.692;12.844;2023-02-01T08:27:38;3.70;71.80
69382;DHT22;56560;50.692;12.844;2023-02-01T08:30:05;3.70;72.10
69382;DHT22;56560;50.692;12.844;2023-02-01T08:32:33;3.70;71.70
69382;DHT22;56560;50.692;12.844;2023-02-01T08:34:59;3.70;71.30
69382;DHT22;56560;50.692;12.844;2023-02-01T08:37:25;3.70;71.50
69382;DHT22;56560;50.692;12.844;2023-02-01T08:39:50;3.70;71.90
69382;DHT22;56560;50.692;12.844;2023-02-01T08:42:17;3.70;71.90
69382;DHT22;56560;50.692;12.844;2023-02-01T08:45:02;3.80;71.80
69382;DHT22;56560;50.692;12.844;2023-02-01T08:47:28;3.80;72.10
69382;DHT22;56560;50.692;12.844;2023-02-01T08:49:54;3.80;72.50
69382;DHT22;56560;50.692;12.844;2023-02-01T08:52:20;3.70;73.40
69382;DHT22;56560;50.692;12.844;2023-02-01T08:54:45;3.60;74.50
69382;DHT22;56560;50.692;12.844;2023-02-01T08:57:11;3.40;75.40
69382;DHT22;56560;50.692;12.844;2023-02-01T08:59:37;3.40;76.40
69382;DHT22;56560;50.692;12.844;2023-02-01T09:02:03;3.30;77.70
69382;DHT22;56560;50.692;12.844;2023-02-01T09:04:28;3.10;78.90
69382;DHT22;56560;50.692;12.844;2023-02-01T09:06:54;3.10;79.80
69382;DHT22;56560;50.692;12.844;2023-02-01T09:09:22;3.00;80.70
69382;DHT22;56560;50.692;12.844;2023-02-01T09:11:48;3.00;80.80
69382;DHT22;56560;50.692;12.844;2023-02-01T09:14:16;2.90;81.40
69382;DHT22;56560;50.692;12.844;2023-02-01T09:16:41;2.80;81.80
69382;DHT22;56560;50.692;12.844;2023-02-01T09:19:07;2.80;82.20
69382;DHT22;56560;50.692;12.844;2023-02-01T09:21:32;2.80;82.20
69382;DHT22;56560;50.692;12.844;2023-02-01T09:23:58;2.80;82.10
69382;DHT22;56560;50.692;12.844;2023-02-01T09:26:24;2.80;81.80
69382;DHT22;56560;50.692;12.844;2023-02-01T09:28:51;2.90;80.30
69382;DHT22;56560;50.692;12.844;2023-02-01T09:31:16;3.10;79.80
69382;DHT22;56560;50.692;12.844;2023-02-01T09:33:42;3.20;78.50
69382;DHT22;56560;50.692;12.844;2023-02-01T09:36:08;3.30;77.80
69382;DHT22;56560;50.692;12.844;2023-02-01T09:38:33;3.30;78.30
69382;DHT22;56560;50.692;12.844;2023-02-01T09:40:59;3.40;77.10
69382;DHT22;56560;50.692;12.844;2023-02-01T09:46:27;3.50;77.10
69382;DHT22;56560;50.692;12.844;2023-02-01T09:48:56;3.60;75.50
69382;DHT22;56560;50.692;12.844;2023-02-01T09:51:29;3.60;75.20
69382;DHT22;56560;50.692;12.844;2023-02-01T09:57:19;3.70;74.70
69382;DHT22;56560;50.692;12.844;2023-02-01T10:00:04;3.90;74.30
69382;DHT22;56560;50.692;12.844;2023-02-01T10:02:30;4.00;74.30
69382;DHT22;56560;50.692;12.844;2023-02-01T10:04:59;4.10;73.70
69382;DHT22;56560;50.692;12.844;2023-02-01T10:07:47;4.10;74.40
69382;DHT22;56560;50.692;12.844;2023-02-01T10:10:40;4.20;73.90
69382;DHT22;56560;50.692;12.844;2023-02-01T10:21:19;3.90;77.20
69382;DHT22;56560;50.692;12.844;2023-02-01T10:26:25;3.70;78.40
69382;DHT22;56560;50.692;12.844;2023-02-01T10:28:57;3.70;78.30
69382;DHT22;56560;50.692;12.844;2023-02-01T10:31:26;3.70;78.00
69382;DHT22;56560;50.692;12.844;2023-02-01T10:33:57;3.80;77.40
69382;DHT22;56560;50.692;12.844;2023-02-01T10:36:40;4.00;76.30
69382;DHT22;56560;50.692;12.844;2023-02-01T10:39:11;4.00;75.90
69382;DHT22;56560;50.692;12.844;2023-02-01T10:41:39;4.00;75.20
69382;DHT22;56560;50.692;12.844;2023-02-01T10:44:11;4.10;74.00
69382;DHT22;56560;50.692;12.844;2023-02-01T10:46:38;4.30;74.10
69382;DHT22;56560;50.692;12.844;2023-02-01T10:49:05;4.40;73.80
69382;DHT22;56560;50.692;12.844;2023-02-01T10:51:52;4.50;72.30
69382;DHT22;56560;50.692;12.844;2023-02-01T10:54:21;4.60;71.70
69382;DHT22;56560;50.692;12.844;2023-02-01T10:56:49;4.60;71.40
69382;DHT22;56560;50.692;12.844;2023-02-01T10:59:24;4.60;72.10
69382;DHT22;56560;50.692;12.844;2023-02-01T11:01:59;4.60;72.10
69382;DHT22;56560;50.692;12.844;2023-02-01T11:04:26;4.60;71.60
69382;DHT22;56560;50.692;12.844;2023-02-01T11:07:07;4.60;69.90
69382;DHT22;56560;50.692;12.844;2023-02-01T11:09:38;4.70;69.00
69382;DHT22;56560;50.692;12.844;2023-02-01T11:12:10;4.60;69.80
69382;DHT22;56560;50.692;12.844;2023-02-01T11:14:47;4.60;69.70
69382;DHT22;56560;50.692;12.844;2023-02-01T11:17:17;4.50;70.40
69382;DHT22;56560;50.692;12.844;2023-02-01T11:19:45;4.50;70.40
69382;DHT22;56560;50.692;12.844;2023-02-01T11:22:12;4.60;70.50
69382;DHT22;56560;50.692;12.844;2023-02-01T11:24:39;4.70;69.20
69382;DHT22;56560;50.692;12.844;2023-02-01T11:27:16;4.90;68.50
69382;DHT22;56560;50.692;12.844;2023-02-01T11:29:49;4.90;68.70
69382;DHT22;56560;50.692;12.844;2023-02-01T11:32:18;5.00;67.80
69382;DHT22;56560;50.692;12.844;2023-02-01T11:34:47;5.00;68.70
69382;DHT22;56560;50.692;12.844;2023-02-01T11:37:21;5.00;68.00
69382;DHT22;56560;50.692;12.844;2023-02-01T11:39:56;5.00;67.50
69382;DHT22;56560;50.692;12.844;2023-02-01T11:42:22;5.10;67.50
69382;DHT22;56560;50.692;12.844;2023-02-01T11:44:48;5.10;68.00
69382;DHT22;56560;50.692;12.844;2023-02-01T11:49:55;5.20;67.20
69382;DHT22;56560;50.692;12.844;2023-02-01T11:52:40;5.10;67.20
69382;DHT22;56560;50.692;12.844;2023-02-01T11:55:36;5.20;66.90
69382;DHT22;56560;50.692;12.844;2023-02-01T11:58:27;5.40;66.90
69382;DHT22;56560;50.692;12.844;2023-02-01T12:04:30;5.70;66.50
69382;DHT22;56560;50.692;12.844;2023-02-01T12:07:16;5.50;66.80
69382;DHT22;56560;50.692;12.844;2023-02-01T12:29:07;5.40;67.50
69382;DHT22;56560;50.692;12.844;2023-02-01T12:42:43;5.20;67.40
69382;DHT22;56560;50.692;12.844;2023-02-01T12:45:25;5.30;67.60
69382;DHT22;56560;50.692;12.844;2023-02-01T12:47:55;5.30;66.80
69382;DHT22;56560;50.692;12.844;2023-02-01T12:50:24;5.30;67.00
69382;DHT22;56560;50.692;12.844;2023-02-01T12:52:53;5.50;67.20
69382;DHT22;56560;50.692;12.844;2023-02-01T12:55:38;5.70;65.00
69382;DHT22;56560;50.692;12.844;2023-02-01T13:01:13;5.70;62.40
69382;DHT22;56560;50.692;12.844;2023-02-01T13:03:53;5.70;62.50
69382;DHT22;56560;50.692;12.844;2023-02-01T13:06:24;5.60;62.80
69382;DHT22;56560;50.692;12.844;2023-02-01T13:11:38;5.60;61.80
69382;DHT22;56560;50.692;12.844;2023-02-01T13:16:56;5.50;62.30
69382;DHT22;56560;50.692;12.844;2023-02-01T13:19:47;5.40;63.30
69382;DHT22;56560;50.692;12.844;2023-02-01T13:22:29;5.30;64.00
69382;DHT22;56560;50.692;12.844;2023-02-01T13:25:07;5.30;65.50
69382;DHT22;56560;50.692;12.844;2023-02-01T13:27:37;5.30;65.00
69382;DHT22;56560;50.692;12.844;2023-02-01T13:30:28;5.20;65.50
69382;DHT22;56560;50.692;12.844;2023-02-01T13:35:50;5.10;66.00
69382;DHT22;56560;50.692;12.844;2023-02-01T13:43:59;5.00;67.20
69382;DHT22;56560;50.692;12.844;2023-02-01T13:46:27;5.00;67.50
69382;DHT22;56560;50.692;12.844;2023-02-01T13:49:01;5.00;67.50
69382;DHT22;56560;50.692;12.844;2023-02-01T13:51:48;5.00;67.90
69382;DHT22;56560;50.692;12.844;2023-02-01T13:54:32;4.90;68.10
69382;DHT22;56560;50.692;12.844;2023-02-01T13:57:00;4.80;68.00
69382;DHT22;56560;50.692;12.844;2023-02-01T13:59:44;4.80;68.70
69382;DHT22;56560;50.692;12.844;2023-02-01T14:05:57;4.70;68.30
69382;DHT22;56560;50.692;12.844;2023-02-01T14:13:36;4.60;69.40
69382;DHT22;56560;50.692;12.844;2023-02-01T14:21:33;4.60;69.20
69382;DHT22;56560;50.692;12.844;2023-02-01T14:26:46;4.50;69.90
69382;DHT22;56560;50.692;12.844;2023-02-01T14:29:34;4.50;69.40
69382;DHT22;56560;50.692;12.844;2023-02-01T16:40:54;3.90;72.20
69382;DHT22;56560;50.692;12.844;2023-02-01T16:43:24;3.90;72.80
69382;DHT22;56560;50.692;12.844;2023-02-01T16:45:53;3.80;73.60
69382;DHT22;56560;50.692;12.844;2023-02-01T16:48:24;3.80;73.90
69382;DHT22;56560;50.692;12.844;2023-02-01T16:50:54;3.80;74.40
69382;DHT22;56560;50.692;12.844;2023-02-01T16:53:21;3.70;75.50
69382;DHT22;56560;50.692;12.844;2023-02-01T16:55:47;3.50;78.00
69382;DHT22;56560;50.692;12.844;2023-02-01T16:58:15;3.30;78.60
69382;DHT22;56560;50.692;12.844;2023-02-01T17:00:41;3.30;79.30
69382;DHT22;56560;50.692;12.844;2023-02-01T17:03:07;3.20;80.00
69382;DHT22;56560;50.692;12.844;2023-02-01T17:05:33;3.20;79.70
69382;DHT22;56560;50.692;12.844;2023-02-01T17:08:03;3.20;79.20
69382;DHT22;56560;50.692;12.844;2023-02-01T17:10:30;3.30;78.90
69382;DHT22;56560;50.692;12.844;2023-02-01T17:12:56;3.30;78.20
69382;DHT22;56560;50.692;12.844;2023-02-01T17:15:23;3.40;78.10
69382;DHT22;56560;50.692;12.844;2023-02-01T17:17:50;3.40;77.60
69382;DHT22;56560;50.692;12.844;2023-02-01T17:20:24;3.40;77.80
69382;DHT22;56560;50.692;12.844;2023-02-01T17:22:52;3.50;78.60
69382;DHT22;56560;50.692;12.844;2023-02-01T17:25:19;3.30;80.40
69382;DHT22;56560;50.692;12.844;2023-02-01T17:27:47;2.80;83.00
69382;DHT22;56560;50.692;12.844;2023-02-01T17:30:13;2.40;85.00
69382;DHT22;56560;50.692;12.844;2023-02-01T17:32:39;2.10;86.40
69382;DHT22;56560;50.692;12.844;2023-02-01T17:37:41;1.50;90.60
69382;DHT22;56560;50.692;12.844;2023-02-01T17:40:07;1.40;90.80
69382;DHT22;56560;50.692;12.844;2023-02-01T17:42:34;1.20;91.80
69382;DHT22;56560;50.692;12.844;2023-02-01T17:46:16;1.20;92.20
69382;DHT22;56560;50.692;12.844;2023-02-01T17:48:14;1.20;92.60
69382;DHT22;56560;50.692;12.844;2023-02-01T17:50:40;1.00;93.10
69382;DHT22;56560;50.692;12.844;2023-02-01T17:53:06;1.10;93.10
69382;DHT22;56560;50.692;12.844;2023-02-01T17:55:36;1.10;93.00
69382;DHT22;56560;50.692;12.844;2023-02-01T17:58:02;1.20;92.90
69382;DHT22;56560;50.692;12.844;2023-02-01T18:00:28;1.20;92.30
69382;DHT22;56560;50.692;12.844;2023-02-01T18:02:54;1.20;92.20
69382;DHT22;56560;50.692;12.844;2023-02-01T18:05:41;1.20;92.60
69382;DHT22;56560;50.692;12.844;2023-02-01T18:08:09;1.20;92.50
69382;DHT22;56560;50.692;12.844;2023-02-01T18:10:35;1.30;92.60
69382;DHT22;56560;50.692;12.844;2023-02-01T18:13:02;1.30;92.70
69382;DHT22;56560;50.692;12.844;2023-02-01T18:15:29;1.30;92.70
69382;DHT22;56560;50.692;12.844;2023-02-01T18:17:56;1.40;92.60
69382;DHT22;56560;50.692;12.844;2023-02-01T18:20:23;1.50;92.40
69382;DHT22;56560;50.692;12.844;2023-02-01T18:22:50;1.40;92.60
69382;DHT22;56560;50.692;12.844;2023-02-01T18:25:23;1.40;92.80
69382;DHT22;56560;50.692;12.844;2023-02-01T18:27:51;1.40;92.70
69382;DHT22;56560;50.692;12.844;2023-02-01T18:30:20;1.40;92.80
69382;DHT22;56560;50.692;12.844;2023-02-01T18:32:47;1.50;92.90
69382;DHT22;56560;50.692;12.844;2023-02-01T18:35:21;1.50;92.70
69382;DHT22;56560;50.692;12.844;2023-02-01T18:37:48;1.50;92.40
69382;DHT22;56560;50.692;12.844;2023-02-01T18:40:19;1.50;92.50
69382;DHT22;56560;50.692;12.844;2023-02-01T18:42:45;1.50;92.40
69382;DHT22;56560;50.692;12.844;2023-02-01T18:47:56;1.50;92.30
69382;DHT22;56560;50.692;12.844;2023-02-01T18:50:22;1.50;92.10
69382;DHT22;56560;50.692;12.844;2023-02-01T18:52:52;1.60;92.00
69382;DHT22;56560;50.692;12.844;2023-02-01T18:55:17;1.60;91.90
69382;DHT22;56560;50.692;12.844;2023-02-01T18:57:43;1.60;91.80
69382;DHT22;56560;50.692;12.844;2023-02-01T19:00:10;1.70;91.70
69382;DHT22;56560;50.692;12.844;2023-02-01T19:02:36;1.70;91.80
69382;DHT22;56560;50.692;12.844;2023-02-01T19:05:07;1.70;91.60
69382;DHT22;56560;50.692;12.844;2023-02-01T19:07:36;1.80;91.40
69382;DHT22;56560;50.692;12.844;2023-02-01T19:10:03;1.80;91.20
69382;DHT22;56560;50.692;12.844;2023-02-01T19:12:31;1.80;91.30
69382;DHT22;56560;50.692;12.844;2023-02-01T19:14:58;1.80;91.20
69382;DHT22;56560;50.692;12.844;2023-02-01T19:17:24;1.80;91.20
69382;DHT22;56560;50.692;12.844;2023-02-01T19:19:50;1.80;91.00
69382;DHT22;56560;50.692;12.844;2023-02-01T19:22:17;1.80;90.60
69382;DHT22;56560;50.692;12.844;2023-02-01T19:24:43;1.70;90.50
69382;DHT22;56560;50.692;12.844;2023-02-01T19:27:08;1.70;90.80
69382;DHT22;56560;50.692;12.844;2023-02-01T19:29:35;1.70;90.50
69382;DHT22;56560;50.692;12.844;2023-02-01T19:32:05;1.60;90.80
69382;DHT22;56560;50.692;12.844;2023-02-01T19:34:31;1.60;91.00
69382;DHT22;56560;50.692;12.844;2023-02-01T19:36:57;1.70;90.80
69382;DHT22;56560;50.692;12.844;2023-02-01T19:39:23;1.60;90.90
69382;DHT22;56560;50.692;12.844;2023-02-01T19:41:50;1.70;90.90
69382;DHT22;56560;50.692;12.844;2023-02-01T19:44:16;1.70;90.50
69382;DHT22;56560;50.692;12.844;2023-02-01T19:46:41;1.80;90.60
69382;DHT22;56560;50.692;12.844;2023-02-01T19:49:07;1.80;90.50
69382;DHT22;56560;50.692;12.844;2023-02-01T19:51:37;1.80;90.30
69382;DHT22;56560;50.692;12.844;2023-02-01T19:54:05;1.80;90.40